createdAt,value
2023-10-20T00:01:10.833Z,4.05
2023-10-20T00:03:38.847Z,3.70
2023-10-20T00:06:06.833Z,3.60
2023-10-20T00:08:34.472Z,3.92
2023-10-20T00:11:05.072Z,3.60
2023-10-20T00:13:34.310Z,3.70
2023-10-20T00:16:02.066Z,4.10
2023-10-20T00:18:31.874Z,3.67
2023-10-20T00:20:59.922Z,3.95
2023-10-20T00:23:27.585Z,3.95
2023-10-20T00:25:55.205Z,4.03
2023-10-20T00:28:22.895Z,4.15
2023-10-20T00:30:50.461Z,4.00
2023-10-20T00:33:18.760Z,4.25
2023-10-20T00:35:47.709Z,4.20
2023-10-20T00:38:15.308Z,4.60
2023-10-20T00:40:47.765Z,4.38
2023-10-20T00:43:15.697Z,4.50
2023-10-20T00:45:45.928Z,4.50
2023-10-20T00:48:14.120Z,4.40
2023-10-20T00:50:41.921Z,4.93
2023-10-20T00:53:12.326Z,5.13
2023-10-20T00:55:41.208Z,4.77
2023-10-20T00:58:09.515Z,5.55
2023-10-20T01:00:37.089Z,5.35
2023-10-20T01:03:06.053Z,4.85
2023-10-20T01:05:34.043Z,5.05
2023-10-20T01:08:01.740Z,5.40
2023-10-20T01:10:30.787Z,5.38
2023-10-20T01:12:58.354Z,5.38
2023-10-20T01:15:26.060Z,5.75
2023-10-20T01:17:53.797Z,6.18
2023-10-20T01:20:21.436Z,5.60
2023-10-20T01:22:50.594Z,6.35
2023-10-20T01:25:19.638Z,6.13
2023-10-20T01:27:47.204Z,6.28
2023-10-20T01:30:14.957Z,6.65
2023-10-20T01:32:43.656Z,6.90
2023-10-20T01:35:11.756Z,6.63
2023-10-20T01:37:39.412Z,6.47
2023-10-20T01:40:09.687Z,6.38
2023-10-20T01:42:38.651Z,6.30
2023-10-20T01:45:07.254Z,6.47
2023-10-20T01:47:35.933Z,6.80
2023-10-20T01:50:03.749Z,6.40
2023-10-20T01:52:31.744Z,7.32
2023-10-20T01:54:59.964Z,6.75
2023-10-20T01:57:28.202Z,6.90
2023-10-20T01:59:57.189Z,6.60
2023-10-20T02:02:24.936Z,6.90
2023-10-20T02:04:52.552Z,7.18
2023-10-20T02:07:20.162Z,7.13
2023-10-20T02:09:47.729Z,6.83
2023-10-20T02:12:15.645Z,6.90
2023-10-20T02:14:43.304Z,7.35
2023-10-20T02:17:12.360Z,7.25
2023-10-20T02:19:40.005Z,7.10
2023-10-20T02:22:07.566Z,7.23
2023-10-20T02:24:35.340Z,7.10
2023-10-20T02:27:03.036Z,7.88
2023-10-20T02:29:31.274Z,6.57
2023-10-20T02:31:59.027Z,7.18
2023-10-20T02:34:28.064Z,6.80
2023-10-20T02:36:55.614Z,6.25
2023-10-20T02:39:23.269Z,8.18
2023-10-20T02:41:50.883Z,6.60
2023-10-20T02:44:18.495Z,6.90
2023-10-20T02:46:46.103Z,6.80
2023-10-20T02:49:13.733Z,7.00
2023-10-20T02:51:42.696Z,7.00
2023-10-20T02:54:11.285Z,6.88
2023-10-20T02:56:39.477Z,7.07
2023-10-20T02:59:07.181Z,6.10
2023-10-20T03:01:34.940Z,6.65
2023-10-20T03:04:02.765Z,5.95
2023-10-20T03:06:30.425Z,6.10
2023-10-20T03:08:59.337Z,6.20
2023-10-20T03:11:27.021Z,6.00
2023-10-20T03:13:54.719Z,6.10
2023-10-20T03:16:22.489Z,5.97
2023-10-20T03:18:50.222Z,6.00
2023-10-20T03:21:19.280Z,6.60
2023-10-20T03:23:46.865Z,6.20
2023-10-20T03:26:15.893Z,6.53
2023-10-20T03:28:44.675Z,6.20
2023-10-20T03:31:12.505Z,6.32
2023-10-20T03:33:40.154Z,6.65
2023-10-20T03:36:08.030Z,6.83
2023-10-20T03:38:35.730Z,6.75
2023-10-20T03:41:07.706Z,6.88
2023-10-20T03:43:37.330Z,7.00
2023-10-20T03:46:06.340Z,7.10
2023-10-20T03:48:36.501Z,6.63
2023-10-20T03:51:06.607Z,7.13
2023-10-20T03:53:42.483Z,6.97
2023-10-20T03:56:10.759Z,7.18
2023-10-20T03:58:39.959Z,6.80
2023-10-20T04:01:09.018Z,7.40
2023-10-20T04:03:36.651Z,7.22
2023-10-20T04:06:07.412Z,7.88
2023-10-20T04:08:35.239Z,7.13
2023-10-20T04:11:03.313Z,7.32
2023-10-20T04:13:33.062Z,7.10
2023-10-20T04:16:13.109Z,6.75
2023-10-20T04:18:41.239Z,6.57
2023-10-20T04:21:09.005Z,6.60
2023-10-20T04:23:37.950Z,6.82
2023-10-20T04:26:06.027Z,6.27
2023-10-20T04:28:38.150Z,6.30
2023-10-20T04:31:24.926Z,6.90
2023-10-20T04:34:10.366Z,6.70
2023-10-20T04:36:55.880Z,6.50
2023-10-20T04:39:41.269Z,6.60
2023-10-20T04:42:22.796Z,6.43
2023-10-20T04:45:00.071Z,5.80
2023-10-20T04:47:46.479Z,5.47
2023-10-20T04:50:40.155Z,6.07
2023-10-20T04:53:13.632Z,5.93
2023-10-20T04:56:07.242Z,5.97
2023-10-20T04:58:46.786Z,5.70
2023-10-20T05:01:22.503Z,5.43
2023-10-20T05:03:54.616Z,5.43
2023-10-20T05:06:23.927Z,7.70
2023-10-20T05:08:52.783Z,5.15
2023-10-20T05:11:20.880Z,5.35
2023-10-20T05:13:48.556Z,4.85
2023-10-20T05:16:16.279Z,5.68
2023-10-20T05:18:45.713Z,5.80
2023-10-20T05:21:14.869Z,5.70
2023-10-20T05:23:44.989Z,5.78
2023-10-20T05:26:12.735Z,5.65
2023-10-20T05:28:40.346Z,5.20
2023-10-20T05:31:08.499Z,5.63
2023-10-20T05:33:36.074Z,5.30
2023-10-20T05:36:05.445Z,5.30
2023-10-20T05:38:34.469Z,5.40
2023-10-20T05:41:02.326Z,5.30
2023-10-20T05:43:31.264Z,5.20
2023-10-20T05:45:58.875Z,5.65
2023-10-20T05:48:26.643Z,4.82
2023-10-20T05:50:58.608Z,4.85
2023-10-20T05:53:26.458Z,5.25
2023-10-20T05:55:55.505Z,5.20
2023-10-20T05:58:23.464Z,5.28
2023-10-20T06:01:02.351Z,5.45
2023-10-20T06:03:32.044Z,5.03
2023-10-20T06:06:01.371Z,5.55
2023-10-20T06:08:30.695Z,6.00
2023-10-20T06:11:07.194Z,5.85
2023-10-20T06:13:36.698Z,5.70
2023-10-20T06:16:11.277Z,5.78
2023-10-20T06:18:39.965Z,5.65
2023-10-20T06:21:08.822Z,6.53
2023-10-20T06:23:36.537Z,6.20
2023-10-20T06:26:05.618Z,6.18
2023-10-20T06:28:33.139Z,6.40
2023-10-20T06:31:01.919Z,6.15
2023-10-20T06:33:34.075Z,6.17
2023-10-20T06:36:11.502Z,13.30
2023-10-20T06:38:46.305Z,6.72
2023-10-20T06:41:15.674Z,5.90
2023-10-20T06:43:43.319Z,5.70
2023-10-20T06:46:11.145Z,6.17
2023-10-20T06:48:38.999Z,6.22
2023-10-20T06:51:06.681Z,5.93
2023-10-20T06:53:34.326Z,5.75
2023-10-20T06:58:38.730Z,6.13
2023-10-20T07:01:07.343Z,6.18
2023-10-20T07:03:35.806Z,6.00
2023-10-20T07:06:08.176Z,6.55
2023-10-20T07:08:36.273Z,6.97
2023-10-20T07:11:04.980Z,7.17
2023-10-20T07:13:33.754Z,7.60
2023-10-20T07:16:03.032Z,7.60
2023-10-20T07:18:30.788Z,7.43
2023-10-20T07:20:59.072Z,7.93
2023-10-20T07:23:27.295Z,8.17
2023-10-20T07:25:55.113Z,8.20
2023-10-20T07:28:22.881Z,8.38
2023-10-20T07:30:51.501Z,8.07
2023-10-20T07:33:20.469Z,9.25
2023-10-20T07:35:48.690Z,8.93
2023-10-20T07:38:16.756Z,8.38
2023-10-20T07:40:44.349Z,8.65
2023-10-20T07:43:12.229Z,9.48
2023-10-20T07:45:41.587Z,7.85
2023-10-20T07:48:11.922Z,8.43
2023-10-20T07:50:43.322Z,8.15
2023-10-20T07:53:12.002Z,7.82
2023-10-20T07:55:39.606Z,9.25
2023-10-20T07:58:10.091Z,7.90
2023-10-20T08:00:38.085Z,7.97
2023-10-20T08:03:06.661Z,8.25
2023-10-20T08:05:37.002Z,7.88
2023-10-20T08:08:07.355Z,7.65
2023-10-20T08:10:35.189Z,8.20
2023-10-20T08:13:03.671Z,7.57
2023-10-20T08:15:31.621Z,8.32
2023-10-20T08:17:59.435Z,7.20
2023-10-20T08:20:27.119Z,8.25
2023-10-20T08:22:54.740Z,7.85
2023-10-20T08:25:23.732Z,7.77
2023-10-20T08:27:51.915Z,7.93
2023-10-20T08:30:21.325Z,8.32
2023-10-20T08:32:49.142Z,7.72
2023-10-20T08:35:16.948Z,7.38
2023-10-20T08:37:44.637Z,8.10
2023-10-20T08:40:13.398Z,7.97
2023-10-20T08:42:43.515Z,8.70
2023-10-20T08:45:14.155Z,7.75
2023-10-20T08:47:42.947Z,8.02
2023-10-20T08:50:11.398Z,7.27
2023-10-20T08:52:40.463Z,7.25
2023-10-20T08:55:09.308Z,7.40
2023-10-20T08:57:36.974Z,7.18
2023-10-20T09:00:08.447Z,7.80
2023-10-20T09:02:39.894Z,7.00
2023-10-20T09:05:08.424Z,7.45
2023-10-20T09:07:36.017Z,6.38
2023-10-20T09:10:04.054Z,7.05
2023-10-20T09:12:33.925Z,6.97
2023-10-20T09:15:01.589Z,7.00
2023-10-20T09:17:35.043Z,7.05
2023-10-20T09:20:07.556Z,7.57
2023-10-20T09:22:35.570Z,6.72
2023-10-20T09:25:03.698Z,7.22
2023-10-20T09:27:31.585Z,6.83
2023-10-20T09:30:00.294Z,7.25
2023-10-20T09:32:28.821Z,6.95
2023-10-20T09:34:58.941Z,6.80
2023-10-20T09:37:31.015Z,7.72
2023-10-20T09:40:07.430Z,7.30
2023-10-20T09:42:45.155Z,6.30
2023-10-20T09:45:18.248Z,6.68
2023-10-20T09:47:53.136Z,6.63
2023-10-20T09:50:24.629Z,6.50
2023-10-20T09:52:54.583Z,5.83
2023-10-20T09:55:23.110Z,6.55
2023-10-20T09:57:51.358Z,6.15
2023-10-20T10:00:31.767Z,6.07
2023-10-20T10:03:00.480Z,5.55
2023-10-20T10:05:32.066Z,5.60
2023-10-20T10:08:08.719Z,5.45
2023-10-20T10:10:37.020Z,5.18
2023-10-20T10:13:07.021Z,5.43
2023-10-20T10:15:39.836Z,5.10
2023-10-20T10:18:10.723Z,5.40
2023-10-20T10:20:47.031Z,5.63
2023-10-20T10:23:15.811Z,5.18
2023-10-20T10:25:45.006Z,5.55
2023-10-20T10:28:14.953Z,5.57
2023-10-20T10:30:46.632Z,4.97
2023-10-20T10:33:14.906Z,4.95
2023-10-20T10:35:44.013Z,5.03
2023-10-20T10:38:20.623Z,4.95
2023-10-20T10:40:49.507Z,5.18
2023-10-20T10:43:20.399Z,4.73
2023-10-20T10:45:54.772Z,5.20
2023-10-20T10:48:26.989Z,5.28
2023-10-20T10:50:56.071Z,4.63
2023-10-20T10:53:23.870Z,4.40
2023-10-20T10:55:51.589Z,4.70
2023-10-20T10:58:19.980Z,4.40
2023-10-20T11:00:48.180Z,4.75
2023-10-20T11:03:16.431Z,4.70
2023-10-20T11:05:44.962Z,4.60
2023-10-20T11:08:16.139Z,4.47
2023-10-20T11:10:48.198Z,4.85
2023-10-20T11:13:17.448Z,4.13
2023-10-20T11:15:45.577Z,4.88
2023-10-20T11:18:13.390Z,4.47
2023-10-20T11:20:44.690Z,4.90
2023-10-20T11:23:15.415Z,4.50
2023-10-20T11:25:43.745Z,4.53
2023-10-20T11:28:11.592Z,4.43
2023-10-20T11:30:43.243Z,4.13
2023-10-20T11:33:15.695Z,4.07
2023-10-20T11:35:44.203Z,4.30
2023-10-20T11:38:11.809Z,4.85
2023-10-20T11:40:42.796Z,4.45
2023-10-20T11:43:10.405Z,4.15
2023-10-20T11:45:38.109Z,4.43
2023-10-20T11:48:06.432Z,4.45
2023-10-20T11:50:34.055Z,3.92
2023-10-20T11:53:01.756Z,4.40
2023-10-20T11:55:29.375Z,4.40
2023-10-20T11:57:58.427Z,4.80
2023-10-20T12:00:26.116Z,3.70
2023-10-20T12:02:53.884Z,4.15
2023-10-20T12:05:21.740Z,4.30
2023-10-20T12:07:49.363Z,4.53
2023-10-20T12:10:17.085Z,3.63
2023-10-20T12:12:44.695Z,4.72
2023-10-20T12:15:13.744Z,3.55
2023-10-20T12:17:42.820Z,3.70
2023-10-20T12:20:11.688Z,3.25
2023-10-20T12:22:39.251Z,4.67
2023-10-20T12:25:07.765Z,4.30
2023-10-20T12:27:35.378Z,3.88
2023-10-20T12:30:03.232Z,4.07
2023-10-20T12:32:32.904Z,3.70
2023-10-20T12:35:00.581Z,3.53
2023-10-20T12:37:28.157Z,3.58
2023-10-20T12:39:55.812Z,3.88
2023-10-20T12:42:23.629Z,3.58
2023-10-20T12:44:51.251Z,3.75
2023-10-20T12:47:20.373Z,3.77
2023-10-20T12:49:49.290Z,3.78
2023-10-20T12:52:16.817Z,3.90
2023-10-20T12:54:44.416Z,3.67
2023-10-20T12:57:12.567Z,3.60
2023-10-20T12:59:40.280Z,3.67
2023-10-20T13:02:08.163Z,3.55
2023-10-20T13:04:36.200Z,4.03
2023-10-20T13:07:05.330Z,3.40
2023-10-20T13:09:32.983Z,3.20
2023-10-20T13:12:00.700Z,3.70
2023-10-20T13:14:29.231Z,3.80
2023-10-20T13:16:58.030Z,3.40
2023-10-20T13:19:25.663Z,3.30
2023-10-20T13:21:53.802Z,3.20
2023-10-20T13:24:22.745Z,3.37
2023-10-20T13:26:50.467Z,3.40
2023-10-20T13:29:18.127Z,3.63
2023-10-20T13:31:45.737Z,3.70
2023-10-20T13:34:13.440Z,3.83
2023-10-20T13:36:41.145Z,4.53
2023-10-20T13:41:40.808Z,4.43
2023-10-20T13:44:11.156Z,3.80
2023-10-20T13:46:38.784Z,4.68
2023-10-20T13:49:07.238Z,6.47
2023-10-20T13:51:35.115Z,3.53
2023-10-20T13:54:02.731Z,4.20
2023-10-20T13:56:30.430Z,3.35
2023-10-20T13:59:00.276Z,2.97
2023-10-20T14:01:27.945Z,3.30
2023-10-20T14:03:56.217Z,3.00
2023-10-20T14:06:25.271Z,3.30
2023-10-20T14:08:53.908Z,2.90
2023-10-20T14:11:21.710Z,3.15
2023-10-20T14:13:49.339Z,3.30
2023-10-20T14:16:18.411Z,3.17
2023-10-20T14:18:46.056Z,3.63
2023-10-20T14:21:13.825Z,3.20
2023-10-20T14:23:41.457Z,2.70
2023-10-20T14:26:09.117Z,3.10
2023-10-20T14:28:37.819Z,3.15
2023-10-20T14:31:06.391Z,2.80
2023-10-20T14:33:35.926Z,2.83
2023-10-20T14:36:03.709Z,3.10
2023-10-20T14:38:31.822Z,3.20
2023-10-20T14:41:03.806Z,3.10
2023-10-20T14:43:33.420Z,3.20
2023-10-20T14:46:01.662Z,3.03
2023-10-20T14:48:29.638Z,2.97
2023-10-20T14:50:59.702Z,3.20
2023-10-20T14:53:27.628Z,3.17
2023-10-20T14:55:56.186Z,3.20
2023-10-20T14:58:23.896Z,3.20
2023-10-20T15:00:52.350Z,3.30
2023-10-20T15:03:22.065Z,3.60
2023-10-20T15:05:50.939Z,3.80
2023-10-20T15:08:20.810Z,3.63
2023-10-20T15:10:48.437Z,3.78
2023-10-20T15:13:17.282Z,3.30
2023-10-20T15:15:44.962Z,3.03
2023-10-20T15:18:12.681Z,3.20
2023-10-20T15:20:42.138Z,3.22
2023-10-20T15:23:17.243Z,2.85
2023-10-20T15:25:48.237Z,2.90
2023-10-20T15:28:16.078Z,3.33
2023-10-20T15:30:43.613Z,2.90
2023-10-20T15:33:11.349Z,3.85
2023-10-20T15:35:40.708Z,2.90
2023-10-20T15:38:11.259Z,3.35
2023-10-20T15:40:39.185Z,3.03
2023-10-20T15:43:08.251Z,3.00
2023-10-20T15:45:36.050Z,2.80
2023-10-20T15:48:04.888Z,3.03
2023-10-20T15:50:33.575Z,2.80
2023-10-20T15:53:01.588Z,2.90
2023-10-20T15:55:29.293Z,2.70
2023-10-20T15:57:56.885Z,2.60
2023-10-20T16:00:26.187Z,2.95
2023-10-20T16:02:53.879Z,2.90
2023-10-20T16:05:21.525Z,2.63
2023-10-20T16:07:49.074Z,2.92
2023-10-20T16:10:16.954Z,2.90
2023-10-20T16:12:44.626Z,3.00
2023-10-20T16:15:13.780Z,2.92
2023-10-20T16:17:42.900Z,2.80
2023-10-20T16:20:11.922Z,3.95
2023-10-20T16:22:39.510Z,2.50
2023-10-20T16:25:08.317Z,2.80
2023-10-20T16:27:35.888Z,2.90
2023-10-20T16:30:06.203Z,4.40
2023-10-20T16:32:35.518Z,4.18
2023-10-20T16:35:05.152Z,2.90
2023-10-20T16:37:32.814Z,2.53
2023-10-20T16:40:01.370Z,2.63
2023-10-20T16:42:29.078Z,2.50
2023-10-20T16:44:56.725Z,2.80
2023-10-20T16:47:25.033Z,2.60
2023-10-20T16:49:53.013Z,2.30
2023-10-20T16:52:21.980Z,2.28
2023-10-20T16:54:52.364Z,2.70
2023-10-20T16:57:20.450Z,7.18
2023-10-20T16:59:48.150Z,3.30
2023-10-20T17:02:16.391Z,4.97
2023-10-20T17:04:44.020Z,3.15
2023-10-20T17:07:11.750Z,2.40
2023-10-20T17:09:40.744Z,2.72
2023-10-20T17:12:08.928Z,2.20
2023-10-20T17:14:36.562Z,2.00
2023-10-20T17:17:04.378Z,1.83
2023-10-20T17:19:31.963Z,2.10
2023-10-20T17:21:59.831Z,2.55
2023-10-20T17:24:27.864Z,2.22
2023-10-20T17:26:56.870Z,2.60
2023-10-20T17:29:24.418Z,2.70
2023-10-20T17:31:52.072Z,2.10
2023-10-20T17:34:19.829Z,1.80
2023-10-20T17:36:47.514Z,2.50
2023-10-20T17:39:15.471Z,1.80
2023-10-20T17:41:43.105Z,2.00
2023-10-20T17:44:12.038Z,2.70
2023-10-20T17:46:39.646Z,2.15
2023-10-20T17:49:07.231Z,1.70
2023-10-20T17:51:36.020Z,1.90
2023-10-20T17:54:03.762Z,1.70
2023-10-20T17:56:31.445Z,3.33
2023-10-20T17:58:59.384Z,3.30
2023-10-20T18:01:28.804Z,3.70
2023-10-20T18:03:56.594Z,2.40
2023-10-20T18:06:24.452Z,1.63
2023-10-20T18:08:53.079Z,1.77
2023-10-20T18:11:21.866Z,1.92
2023-10-20T18:13:51.877Z,2.20
2023-10-20T18:16:22.252Z,1.95
2023-10-20T18:18:51.687Z,1.70
2023-10-20T18:21:20.965Z,1.70
2023-10-20T18:23:49.197Z,1.90
2023-10-20T18:26:17.553Z,1.63
2023-10-20T18:28:45.268Z,1.70
2023-10-20T18:31:14.077Z,1.60
2023-10-20T18:33:42.283Z,1.73
2023-10-20T18:36:12.431Z,1.40
2023-10-20T18:38:40.111Z,1.52
2023-10-20T18:41:14.515Z,1.50
2023-10-20T18:43:42.193Z,1.50
2023-10-20T18:46:10.253Z,1.90
2023-10-20T18:48:38.056Z,2.38
2023-10-20T18:51:06.238Z,1.80
2023-10-20T18:53:36.544Z,1.73
2023-10-20T18:56:05.110Z,1.40
2023-10-20T18:58:32.863Z,1.50
2023-10-20T19:01:00.940Z,1.60
2023-10-20T19:03:32.569Z,1.60
2023-10-20T19:06:00.401Z,1.40
2023-10-20T19:08:28.143Z,2.10
2023-10-20T19:11:00.347Z,1.50
2023-10-20T19:13:27.940Z,1.30
2023-10-20T19:15:57.084Z,1.60
2023-10-20T19:18:25.139Z,1.88
2023-10-20T19:20:57.932Z,1.40
2023-10-20T19:23:25.673Z,2.00
2023-10-20T19:26:01.117Z,1.30
2023-10-20T19:28:29.905Z,1.40
2023-10-20T19:31:01.577Z,1.20
2023-10-20T19:33:29.702Z,2.20
2023-10-20T19:35:57.582Z,1.97
2023-10-20T19:38:25.860Z,2.20
2023-10-20T19:40:53.923Z,1.95
2023-10-20T19:43:23.312Z,1.55
2023-10-20T19:45:51.475Z,1.80
2023-10-20T19:48:19.241Z,1.50
2023-10-20T19:50:47.664Z,1.60
2023-10-20T19:53:15.348Z,1.80
2023-10-20T19:55:43.952Z,1.67
2023-10-20T19:58:11.963Z,1.50
2023-10-20T20:00:41.469Z,1.73
2023-10-20T20:03:09.658Z,3.95
2023-10-20T20:05:37.485Z,4.55
2023-10-20T20:08:05.524Z,2.58
2023-10-20T20:10:33.172Z,1.70
2023-10-20T20:13:00.765Z,1.40
2023-10-20T20:15:28.362Z,1.27
2023-10-20T20:17:58.218Z,1.52
2023-10-20T20:20:26.217Z,1.40
2023-10-20T20:22:53.795Z,1.30
2023-10-20T20:25:21.476Z,1.43
2023-10-20T20:27:49.107Z,1.50
2023-10-20T20:30:16.813Z,1.70
2023-10-20T20:32:44.545Z,1.45
2023-10-20T20:35:13.663Z,1.40
2023-10-20T20:37:41.244Z,1.67
2023-10-20T20:40:09.709Z,6.25
2023-10-20T20:42:37.339Z,2.00
2023-10-20T20:45:06.750Z,1.45
2023-10-20T20:47:34.523Z,1.55
2023-10-20T20:50:02.262Z,1.50
2023-10-20T20:52:32.876Z,1.40
2023-10-20T20:55:01.209Z,1.50
2023-10-20T20:57:30.203Z,1.73
2023-10-20T20:59:57.848Z,1.42
2023-10-20T21:02:25.655Z,1.40
2023-10-20T21:04:53.520Z,1.52
2023-10-20T21:07:21.083Z,1.35
2023-10-20T21:09:50.056Z,1.60
2023-10-20T21:12:17.709Z,2.60
2023-10-20T21:14:45.416Z,1.83
2023-10-20T21:17:13.151Z,1.50
2023-10-20T21:19:40.685Z,1.45
2023-10-20T21:22:08.273Z,1.30
2023-10-20T21:24:35.924Z,1.30
2023-10-20T21:27:05.362Z,1.30
2023-10-20T21:29:33.165Z,1.20
2023-10-20T21:32:00.806Z,1.30
2023-10-20T21:34:28.356Z,1.40
2023-10-20T21:36:57.117Z,1.30
2023-10-20T21:39:27.714Z,1.50
2023-10-20T21:41:55.575Z,1.42
2023-10-20T21:44:24.711Z,1.27
2023-10-20T21:46:52.369Z,1.50
2023-10-20T21:49:19.960Z,1.25
2023-10-20T21:51:47.579Z,1.30
2023-10-20T21:54:15.336Z,1.30
2023-10-20T21:56:43.111Z,1.40
2023-10-20T21:59:10.824Z,1.27
2023-10-20T22:01:39.813Z,1.30
2023-10-20T22:04:07.599Z,1.20
2023-10-20T22:06:35.666Z,1.40
2023-10-20T22:09:03.993Z,1.48
2023-10-20T22:11:31.596Z,1.50
2023-10-20T22:13:59.208Z,1.20
2023-10-20T22:16:26.868Z,1.30
2023-10-20T22:18:55.866Z,1.30
2023-10-20T22:21:23.857Z,1.30
2023-10-20T22:23:51.500Z,1.30
2023-10-20T22:26:19.295Z,1.48
2023-10-20T22:28:46.963Z,1.50
2023-10-20T22:31:14.630Z,1.60
2023-10-20T22:33:42.524Z,1.48
2023-10-20T22:36:11.551Z,1.50
2023-10-20T22:38:39.126Z,1.50
2023-10-20T22:41:08.095Z,1.60
2023-10-20T22:43:35.709Z,1.55
2023-10-20T22:46:04.713Z,1.60
2023-10-20T22:48:32.635Z,1.63
2023-10-20T22:51:00.316Z,1.60
2023-10-20T22:53:29.332Z,1.60
2023-10-20T22:55:56.914Z,1.50
2023-10-20T22:58:24.541Z,1.55
2023-10-20T23:00:52.186Z,1.80
2023-10-20T23:03:19.949Z,1.90
2023-10-20T23:05:47.753Z,1.70
2023-10-20T23:08:15.455Z,1.95
2023-10-20T23:10:44.445Z,1.80
2023-10-20T23:13:12.298Z,1.83
2023-10-20T23:15:41.777Z,1.75
2023-10-20T23:18:09.653Z,2.10
2023-10-20T23:20:37.733Z,2.20
2023-10-20T23:23:05.886Z,1.95
2023-10-20T23:25:35.347Z,2.10
2023-10-20T23:28:05.100Z,2.28
2023-10-20T23:30:32.686Z,2.10
2023-10-20T23:33:00.951Z,2.20
2023-10-20T23:35:28.671Z,2.38
2023-10-20T23:37:56.212Z,2.10
2023-10-20T23:40:24.025Z,2.30
2023-10-20T23:42:51.723Z,2.50
2023-10-20T23:45:20.795Z,2.40
2023-10-20T23:47:48.470Z,2.60
2023-10-20T23:50:16.504Z,2.50
2023-10-20T23:52:44.107Z,2.40
2023-10-20T23:55:11.730Z,2.40
2023-10-20T23:57:39.297Z,2.53
